sensor_id;sensor_type;location;lat;lon;timestamp;pressure;altitude;pressure_sealevel;temperature;humidity
63715;BME280;49858;48.956;9.076;2022-10-31T00:01:26;99221.69;;;13.73;100.00
63715;BME280;49858;48.956;9.076;2022-10-31T00:03:54;99227.44;;;13.65;100.00
63715;BME280;49858;48.956;9.076;2022-10-31T00:06:22;99221.78;;;14.42;100.00
63715;BME280;49858;48.956;9.076;2022-10-31T00:08:54;99217.81;;;14.40;100.00
63715;BME280;49858;48.956;9.076;2022-10-31T00:11:23;99220.34;;;14.98;100.00
63715;BME280;49858;48.956;9.076;2022-10-31T00:13:51;99211.25;;;15.27;100.00
63715;BME280;49858;48.956;9.076;2022-10-31T00:16:21;99208.19;;;15.36;100.00
63715;BME280;49858;48.956;9.076;2022-10-31T00:18:49;99208.19;;;15.66;100.00
63715;BME280;49858;48.956;9.076;2022-10-31T00:21:18;99203.50;;;15.40;100.00
63715;BME280;49858;48.956;9.076;2022-10-31T00:23:46;99215.38;;;15.71;100.00
63715;BME280;49858;48.956;9.076;2022-10-31T00:26:15;99213.25;;;15.91;100.00
63715;BME280;49858;48.956;9.076;2022-10-31T00:28:43;99213.63;;;15.89;100.00
63715;BME280;49858;48.956;9.076;2022-10-31T00:31:12;99212.81;;;15.89;100.00
63715;BME280;49858;48.956;9.076;2022-10-31T00:33:41;99204.56;;;15.92;100.00
63715;BME280;49858;48.956;9.076;2022-10-31T00:36:16;99204.38;;;15.48;100.00
63715;BME280;49858;48.956;9.076;2022-10-31T00:38:45;99199.50;;;15.38;100.00
63715;BME280;49858;48.956;9.076;2022-10-31T00:41:16;99206.28;;;15.40;100.00
63715;BME280;49858;48.956;9.076;2022-10-31T00:43:44;99205.75;;;15.31;100.00
63715;BME280;49858;48.956;9.076;2022-10-31T00:46:13;99198.03;;;15.47;100.00
63715;BME280;49858;48.956;9.076;2022-10-31T00:48:41;99207.47;;;15.13;100.00
63715;BME280;49858;48.956;9.076;2022-10-31T00:51:09;99205.66;;;14.25;100.00
63715;BME280;49858;48.956;9.076;2022-10-31T00:53:38;99209.91;;;14.42;100.00
63715;BME280;49858;48.956;9.076;2022-10-31T00:56:06;99210.28;;;14.17;100.00
63715;BME280;49858;48.956;9.076;2022-10-31T00:58:36;99215.38;;;14.38;100.00
63715;BME280;49858;48.956;9.076;2022-10-31T01:01:05;99202.72;;;14.37;100.00
63715;BME280;49858;48.956;9.076;2022-10-31T01:03:34;99213.72;;;14.33;100.00
63715;BME280;49858;48.956;9.076;2022-10-31T01:06:04;99204.31;;;14.38;100.00
63715;BME280;49858;48.956;9.076;2022-10-31T01:08:33;99205.41;;;14.11;100.00
63715;BME280;49858;48.956;9.076;2022-10-31T01:11:04;99205.97;;;14.20;100.00
63715;BME280;49858;48.956;9.076;2022-10-31T01:13:33;99211.22;;;14.05;100.00
63715;BME280;49858;48.956;9.076;2022-10-31T01:16:03;99218.75;;;14.28;100.00
63715;BME280;49858;48.956;9.076;2022-10-31T01:18:32;99213.97;;;14.25;100.00
63715;BME280;49858;48.956;9.076;2022-10-31T01:21:01;99212.91;;;14.33;100.00
63715;BME280;49858;48.956;9.076;2022-10-31T01:23:30;99210.53;;;14.31;100.00
63715;BME280;49858;48.956;9.076;2022-10-31T01:26:02;99208.34;;;13.98;100.00
63715;BME280;49858;48.956;9.076;2022-10-31T01:28:32;99205.84;;;14.13;100.00
63715;BME280;49858;48.956;9.076;2022-10-31T01:31:03;99204.38;;;14.19;100.00
63715;BME280;49858;48.956;9.076;2022-10-31T01:33:33;99205.03;;;13.89;100.00
63715;BME280;49858;48.956;9.076;2022-10-31T01:36:10;99200.66;;;13.88;100.00
63715;BME280;49858;48.956;9.076;2022-10-31T01:38:38;99204.00;;;13.97;100.00
63715;BME280;49858;48.956;9.076;2022-10-31T01:41:06;99199.41;;;13.86;100.00
63715;BME280;49858;48.956;9.076;2022-10-31T01:43:49;99209.69;;;13.85;100.00
63715;BME280;49858;48.956;9.076;2022-10-31T01:46:22;99208.53;;;14.09;100.00
63715;BME280;49858;48.956;9.076;2022-10-31T01:48:52;99201.19;;;14.17;100.00
63715;BME280;49858;48.956;9.076;2022-10-31T01:51:23;99202.63;;;14.11;100.00
63715;BME280;49858;48.956;9.076;2022-10-31T01:53:55;99202.47;;;14.23;100.00
63715;BME280;49858;48.956;9.076;2022-10-31T01:56:26;99201.66;;;14.22;100.00
63715;BME280;49858;48.956;9.076;2022-10-31T01:58:55;99204.84;;;14.24;100.00
63715;BME280;49858;48.956;9.076;2022-10-31T02:01:27;99200.19;;;14.28;100.00
63715;BME280;49858;48.956;9.076;2022-10-31T02:03:56;99201.50;;;13.92;100.00
63715;BME280;49858;48.956;9.076;2022-10-31T02:06:30;99195.09;;;14.07;100.00
63715;BME280;49858;48.956;9.076;2022-10-31T02:09:03;99198.03;;;14.41;100.00
63715;BME280;49858;48.956;9.076;2022-10-31T02:11:32;99202.31;;;14.16;100.00
63715;BME280;49858;48.956;9.076;2022-10-31T02:14:02;99196.94;;;14.23;100.00
63715;BME280;49858;48.956;9.076;2022-10-31T02:16:32;99194.47;;;14.41;100.00
63715;BME280;49858;48.956;9.076;2022-10-31T02:19:02;99192.31;;;14.53;100.00
63715;BME280;49858;48.956;9.076;2022-10-31T02:21:39;99188.03;;;14.56;100.00
63715;BME280;49858;48.956;9.076;2022-10-31T02:24:31;99192.31;;;14.53;100.00
63715;BME280;49858;48.956;9.076;2022-10-31T02:27:14;99194.06;;;13.96;100.00
63715;BME280;49858;48.956;9.076;2022-10-31T02:30:11;99195.59;;;13.32;100.00
63715;BME280;49858;48.956;9.076;2022-10-31T02:33:07;99199.81;;;13.10;100.00
63715;BME280;49858;48.956;9.076;2022-10-31T02:35:47;99192.38;;;13.88;100.00
63715;BME280;49858;48.956;9.076;2022-10-31T02:38:26;99191.94;;;14.09;100.00
63715;BME280;49858;48.956;9.076;2022-10-31T02:41:03;99205.09;;;12.84;100.00
63715;BME280;49858;48.956;9.076;2022-10-31T02:43:54;99208.06;;;12.12;100.00
63715;BME280;49858;48.956;9.076;2022-10-31T02:46:32;99204.63;;;12.97;100.00
63715;BME280;49858;48.956;9.076;2022-10-31T02:49:14;99190.84;;;13.71;100.00
63715;BME280;49858;48.956;9.076;2022-10-31T02:51:46;99189.84;;;14.02;100.00
63715;BME280;49858;48.956;9.076;2022-10-31T02:54:19;99178.75;;;14.22;100.00
63715;BME280;49858;48.956;9.076;2022-10-31T02:56:54;99174.13;;;14.52;100.00
63715;BME280;49858;48.956;9.076;2022-10-31T02:59:25;99177.91;;;14.67;100.00
63715;BME280;49858;48.956;9.076;2022-10-31T03:02:09;99182.00;;;14.50;100.00
63715;BME280;49858;48.956;9.076;2022-10-31T03:04:56;99179.34;;;14.57;100.00
63715;BME280;49858;48.956;9.076;2022-10-31T03:07:32;99174.19;;;14.56;100.00
63715;BME280;49858;48.956;9.076;2022-10-31T03:10:16;99172.56;;;14.78;100.00
63715;BME280;49858;48.956;9.076;2022-10-31T03:12:49;99172.44;;;14.71;100.00
63715;BME280;49858;48.956;9.076;2022-10-31T03:15:21;99184.63;;;14.66;100.00
63715;BME280;49858;48.956;9.076;2022-10-31T03:17:54;99189.19;;;14.78;100.00
63715;BME280;49858;48.956;9.076;2022-10-31T03:20:29;99186.50;;;14.85;100.00
63715;BME280;49858;48.956;9.076;2022-10-31T03:23:01;99179.78;;;14.86;100.00
63715;BME280;49858;48.956;9.076;2022-10-31T03:25:31;99185.75;;;14.88;100.00
63715;BME280;49858;48.956;9.076;2022-10-31T03:28:01;99192.78;;;13.90;100.00
63715;BME280;49858;48.956;9.076;2022-10-31T03:30:33;99190.47;;;13.73;100.00
63715;BME280;49858;48.956;9.076;2022-10-31T03:33:05;99190.81;;;13.91;100.00
63715;BME280;49858;48.956;9.076;2022-10-31T03:35:41;99189.91;;;14.06;100.00
63715;BME280;49858;48.956;9.076;2022-10-31T03:38:12;99193.78;;;14.24;100.00
63715;BME280;49858;48.956;9.076;2022-10-31T03:40:43;99195.44;;;13.09;100.00
63715;BME280;49858;48.956;9.076;2022-10-31T03:43:16;99207.06;;;12.99;100.00
63715;BME280;49858;48.956;9.076;2022-10-31T03:45:49;99207.72;;;12.45;100.00
63715;BME280;49858;48.956;9.076;2022-10-31T03:48:19;99202.56;;;13.10;100.00
63715;BME280;49858;48.956;9.076;2022-10-31T03:50:59;99203.97;;;12.37;100.00
63715;BME280;49858;48.956;9.076;2022-10-31T03:53:32;99196.47;;;13.20;100.00
63715;BME280;49858;48.956;9.076;2022-10-31T03:56:07;99186.19;;;13.75;100.00
63715;BME280;49858;48.956;9.076;2022-10-31T03:58:39;99177.44;;;13.93;100.00
63715;BME280;49858;48.956;9.076;2022-10-31T04:01:11;99182.63;;;13.75;100.00
63715;BME280;49858;48.956;9.076;2022-10-31T04:03:44;99187.44;;;14.01;100.00
63715;BME280;49858;48.956;9.076;2022-10-31T04:06:14;99178.63;;;13.72;100.00
63715;BME280;49858;48.956;9.076;2022-10-31T04:08:48;99177.28;;;13.86;100.00
63715;BME280;49858;48.956;9.076;2022-10-31T04:11:21;99183.88;;;13.58;100.00
63715;BME280;49858;48.956;9.076;2022-10-31T04:14:14;99184.59;;;13.74;100.00
63715;BME280;49858;48.956;9.076;2022-10-31T04:16:43;99180.72;;;13.60;100.00
63715;BME280;49858;48.956;9.076;2022-10-31T04:19:12;99180.88;;;13.67;100.00
63715;BME280;49858;48.956;9.076;2022-10-31T04:21:41;99175.63;;;13.81;100.00
63715;BME280;49858;48.956;9.076;2022-10-31T04:24:10;99171.03;;;13.89;100.00
63715;BME280;49858;48.956;9.076;2022-10-31T04:26:39;99164.72;;;13.69;100.00
63715;BME280;49858;48.956;9.076;2022-10-31T04:29:07;99169.03;;;13.47;100.00
63715;BME280;49858;48.956;9.076;2022-10-31T04:31:34;99172.94;;;13.26;100.00
63715;BME280;49858;48.956;9.076;2022-10-31T04:34:02;99166.38;;;13.15;100.00
63715;BME280;49858;48.956;9.076;2022-10-31T04:36:30;99173.44;;;13.13;100.00
63715;BME280;49858;48.956;9.076;2022-10-31T04:38:59;99171.22;;;13.02;100.00
63715;BME280;49858;48.956;9.076;2022-10-31T04:41:38;99168.31;;;12.95;100.00
63715;BME280;49858;48.956;9.076;2022-10-31T04:44:14;99164.09;;;13.01;100.00
63715;BME280;49858;48.956;9.076;2022-10-31T04:46:45;99154.53;;;13.15;100.00
63715;BME280;49858;48.956;9.076;2022-10-31T04:49:16;99162.63;;;13.23;100.00
63715;BME280;49858;48.956;9.076;2022-10-31T04:51:44;99159.50;;;13.25;100.00
63715;BME280;49858;48.956;9.076;2022-10-31T04:54:14;99150.47;;;13.67;100.00
63715;BME280;49858;48.956;9.076;2022-10-31T04:57:00;99146.03;;;13.62;100.00
63715;BME280;49858;48.956;9.076;2022-10-31T04:59:28;99150.31;;;13.79;100.00
63715;BME280;49858;48.956;9.076;2022-10-31T05:01:58;99153.44;;;13.77;100.00
63715;BME280;49858;48.956;9.076;2022-10-31T05:04:52;99157.56;;;12.23;100.00
63715;BME280;49858;48.956;9.076;2022-10-31T05:07:20;99154.84;;;12.59;100.00
63715;BME280;49858;48.956;9.076;2022-10-31T05:09:49;99155.50;;;12.52;100.00
63715;BME280;49858;48.956;9.076;2022-10-31T05:12:18;99150.22;;;11.84;100.00
63715;BME280;49858;48.956;9.076;2022-10-31T05:15:05;99146.16;;;12.25;100.00
63715;BME280;49858;48.956;9.076;2022-10-31T05:17:52;99143.31;;;13.08;100.00
63715;BME280;49858;48.956;9.076;2022-10-31T05:20:40;99133.63;;;13.33;100.00
63715;BME280;49858;48.956;9.076;2022-10-31T05:23:15;99130.69;;;13.45;100.00
63715;BME280;49858;48.956;9.076;2022-10-31T05:25:44;99126.00;;;13.69;100.00
63715;BME280;49858;48.956;9.076;2022-10-31T05:28:13;99132.22;;;13.62;100.00
63715;BME280;49858;48.956;9.076;2022-10-31T05:30:41;99138.44;;;13.01;100.00
63715;BME280;49858;48.956;9.076;2022-10-31T05:33:12;99139.38;;;13.24;100.00
63715;BME280;49858;48.956;9.076;2022-10-31T05:36:00;99149.00;;;12.13;100.00
63715;BME280;49858;48.956;9.076;2022-10-31T05:38:30;99128.16;;;12.82;100.00
63715;BME280;49858;48.956;9.076;2022-10-31T05:41:07;99127.94;;;13.26;100.00
63715;BME280;49858;48.956;9.076;2022-10-31T05:43:35;99117.44;;;13.54;100.00
63715;BME280;49858;48.956;9.076;2022-10-31T05:46:05;99115.25;;;13.64;100.00
63715;BME280;49858;48.956;9.076;2022-10-31T05:49:04;99112.41;;;13.79;100.00
63715;BME280;49858;48.956;9.076;2022-10-31T05:51:51;99117.97;;;13.60;100.00
63715;BME280;49858;48.956;9.076;2022-10-31T05:54:22;99131.03;;;12.70;100.00
63715;BME280;49858;48.956;9.076;2022-10-31T05:56:52;99131.03;;;13.05;100.00
63715;BME280;49858;48.956;9.076;2022-10-31T05:59:20;99121.63;;;13.25;100.00
63715;BME280;49858;48.956;9.076;2022-10-31T06:01:48;99123.63;;;13.09;100.00
63715;BME280;49858;48.956;9.076;2022-10-31T06:04:30;99111.28;;;13.61;100.00
63715;BME280;49858;48.956;9.076;2022-10-31T06:06:57;99114.78;;;13.81;100.00
63715;BME280;49858;48.956;9.076;2022-10-31T06:09:25;99115.44;;;13.32;100.00
63715;BME280;49858;48.956;9.076;2022-10-31T06:11:55;99117.31;;;13.47;100.00
63715;BME280;49858;48.956;9.076;2022-10-31T06:14:23;99115.69;;;13.66;100.00
63715;BME280;49858;48.956;9.076;2022-10-31T06:16:56;99115.44;;;13.51;100.00
63715;BME280;49858;48.956;9.076;2022-10-31T06:19:56;99128.91;;;13.34;100.00
63715;BME280;49858;48.956;9.076;2022-10-31T06:22:25;99125.03;;;12.84;100.00
63715;BME280;49858;48.956;9.076;2022-10-31T06:24:54;99127.28;;;12.27;100.00
63715;BME280;49858;48.956;9.076;2022-10-31T06:27:45;99121.13;;;11.14;100.00
63715;BME280;49858;48.956;9.076;2022-10-31T06:30:14;99133.50;;;12.08;100.00
63715;BME280;49858;48.956;9.076;2022-10-31T06:32:44;99137.78;;;12.37;100.00
63715;BME280;49858;48.956;9.076;2022-10-31T06:35:12;99126.72;;;12.88;100.00
63715;BME280;49858;48.956;9.076;2022-10-31T06:37:41;99128.28;;;13.05;100.00
63715;BME280;49858;48.956;9.076;2022-10-31T06:40:28;99120.72;;;13.21;100.00
63715;BME280;49858;48.956;9.076;2022-10-31T06:43:15;99130.00;;;13.29;100.00
63715;BME280;49858;48.956;9.076;2022-10-31T06:45:44;99126.19;;;13.18;100.00
63715;BME280;49858;48.956;9.076;2022-10-31T06:48:24;99131.41;;;13.03;100.00
63715;BME280;49858;48.956;9.076;2022-10-31T06:51:18;99118.47;;;13.66;100.00
63715;BME280;49858;48.956;9.076;2022-10-31T06:53:49;99118.84;;;13.87;100.00
63715;BME280;49858;48.956;9.076;2022-10-31T06:56:17;99122.59;;;13.75;100.00
63715;BME280;49858;48.956;9.076;2022-10-31T06:58:53;99120.03;;;14.09;100.00
63715;BME280;49858;48.956;9.076;2022-10-31T07:01:40;99130.84;;;14.44;100.00
63715;BME280;49858;48.956;9.076;2022-10-31T07:04:09;99134.81;;;14.43;100.00
63715;BME280;49858;48.956;9.076;2022-10-31T07:06:37;99138.13;;;14.52;100.00
63715;BME280;49858;48.956;9.076;2022-10-31T07:09:05;99136.38;;;14.44;100.00
63715;BME280;49858;48.956;9.076;2022-10-31T07:11:33;99136.97;;;14.53;100.00
63715;BME280;49858;48.956;9.076;2022-10-31T07:14:02;99140.28;;;14.63;100.00
63715;BME280;49858;48.956;9.076;2022-10-31T07:16:30;99138.41;;;14.70;100.00
63715;BME280;49858;48.956;9.076;2022-10-31T07:18:58;99145.06;;;14.66;100.00
63715;BME280;49858;48.956;9.076;2022-10-31T07:21:27;99151.34;;;14.89;100.00
63715;BME280;49858;48.956;9.076;2022-10-31T07:23:55;99138.72;;;14.92;100.00
63715;BME280;49858;48.956;9.076;2022-10-31T07:26:41;99148.06;;;14.80;100.00
63715;BME280;49858;48.956;9.076;2022-10-31T07:29:11;99151.59;;;15.07;100.00
63715;BME280;49858;48.956;9.076;2022-10-31T07:31:38;99150.03;;;15.09;100.00
63715;BME280;49858;48.956;9.076;2022-10-31T07:34:14;99153.19;;;15.08;100.00
63715;BME280;49858;48.956;9.076;2022-10-31T07:37:00;99153.28;;;15.45;100.00
63715;BME280;49858;48.956;9.076;2022-10-31T07:39:29;99146.97;;;15.48;100.00
63715;BME280;49858;48.956;9.076;2022-10-31T07:41:57;99147.94;;;15.63;100.00
63715;BME280;49858;48.956;9.076;2022-10-31T07:44:27;99148.28;;;15.62;100.00
63715;BME280;49858;48.956;9.076;2022-10-31T07:47:13;99152.09;;;15.46;100.00
63715;BME280;49858;48.956;9.076;2022-10-31T07:50:12;99149.81;;;15.22;100.00
63715;BME280;49858;48.956;9.076;2022-10-31T07:53:18;99149.31;;;15.46;100.00
63715;BME280;49858;48.956;9.076;2022-10-31T07:55:52;99145.03;;;15.52;100.00
63715;BME280;49858;48.956;9.076;2022-10-31T07:58:24;99148.22;;;15.54;100.00
63715;BME280;49858;48.956;9.076;2022-10-31T08:00:53;99151.59;;;15.71;100.00
63715;BME280;49858;48.956;9.076;2022-10-31T08:03:31;99145.69;;;16.09;100.00
63715;BME280;49858;48.956;9.076;2022-10-31T08:06:17;99150.09;;;16.66;100.00
63715;BME280;49858;48.956;9.076;2022-10-31T08:09:04;99146.19;;;16.26;100.00
63715;BME280;49858;48.956;9.076;2022-10-31T08:11:32;99140.03;;;16.02;100.00
63715;BME280;49858;48.956;9.076;2022-10-31T08:14:02;99144.09;;;16.56;100.00
63715;BME280;49858;48.956;9.076;2022-10-31T08:16:31;99141.53;;;16.85;100.00
63715;BME280;49858;48.956;9.076;2022-10-31T08:19:01;99138.19;;;17.34;100.00
63715;BME280;49858;48.956;9.076;2022-10-31T08:21:35;99134.66;;;17.41;100.00
63715;BME280;49858;48.956;9.076;2022-10-31T08:24:03;99128.28;;;17.44;100.00
63715;BME280;49858;48.956;9.076;2022-10-31T08:26:31;99121.63;;;17.67;100.00
63715;BME280;49858;48.956;9.076;2022-10-31T08:29:00;99126.84;;;17.75;100.00
63715;BME280;49858;48.956;9.076;2022-10-31T08:31:32;99126.88;;;18.00;100.00
63715;BME280;49858;48.956;9.076;2022-10-31T08:34:24;99122.13;;;18.33;100.00
63715;BME280;49858;48.956;9.076;2022-10-31T08:37:10;99121.31;;;18.50;100.00
63715;BME280;49858;48.956;9.076;2022-10-31T08:39:42;99120.91;;;18.34;100.00
63715;BME280;49858;48.956;9.076;2022-10-31T08:42:10;99107.78;;;18.09;100.00
63715;BME280;49858;48.956;9.076;2022-10-31T08:44:38;99112.59;;;18.27;100.00
63715;BME280;49858;48.956;9.076;2022-10-31T08:47:07;99110.19;;;18.32;100.00
63715;BME280;49858;48.956;9.076;2022-10-31T08:49:36;99102.63;;;18.15;100.00
63715;BME280;49858;48.956;9.076;2022-10-31T08:52:04;99109.38;;;17.96;100.00
63715;BME280;49858;48.956;9.076;2022-10-31T08:54:39;99109.91;;;17.15;100.00
63715;BME280;49858;48.956;9.076;2022-10-31T08:57:25;99108.38;;;17.24;100.00
63715;BME280;49858;48.956;9.076;2022-10-31T08:59:53;99109.88;;;17.07;100.00
63715;BME280;49858;48.956;9.076;2022-10-31T09:02:30;99107.56;;;17.24;100.00
63715;BME280;49858;48.956;9.076;2022-10-31T09:04:59;99108.16;;;16.81;100.00
63715;BME280;49858;48.956;9.076;2022-10-31T09:07:27;99107.63;;;17.38;100.00
63715;BME280;49858;48.956;9.076;2022-10-31T09:09:55;99099.41;;;17.81;100.00
63715;BME280;49858;48.956;9.076;2022-10-31T09:12:23;99103.78;;;17.85;100.00
63715;BME280;49858;48.956;9.076;2022-10-31T09:15:00;99102.53;;;17.72;100.00
63715;BME280;49858;48.956;9.076;2022-10-31T09:17:36;99112.78;;;17.40;100.00
63715;BME280;49858;48.956;9.076;2022-10-31T09:20:22;99108.41;;;17.35;100.00
63715;BME280;49858;48.956;9.076;2022-10-31T09:22:56;99111.59;;;17.41;100.00
63715;BME280;49858;48.956;9.076;2022-10-31T09:25:24;99104.22;;;17.95;100.00
63715;BME280;49858;48.956;9.076;2022-10-31T09:28:14;99100.63;;;18.37;100.00
63715;BME280;49858;48.956;9.076;2022-10-31T09:30:45;99096.59;;;18.84;100.00
63715;BME280;49858;48.956;9.076;2022-10-31T09:33:20;99093.78;;;19.02;100.00
63715;BME280;49858;48.956;9.076;2022-10-31T09:36:03;99087.03;;;18.96;100.00
63715;BME280;49858;48.956;9.076;2022-10-31T09:38:31;99083.88;;;18.62;100.00
63715;BME280;49858;48.956;9.076;2022-10-31T09:41:07;99083.13;;;18.54;100.00
63715;BME280;49858;48.956;9.076;2022-10-31T09:43:48;99082.72;;;18.38;100.00
63715;BME280;49858;48.956;9.076;2022-10-31T09:46:24;99082.72;;;18.56;100.00
63715;BME280;49858;48.956;9.076;2022-10-31T09:49:16;99083.50;;;18.60;100.00
63715;BME280;49858;48.956;9.076;2022-10-31T09:51:51;99077.72;;;19.24;100.00
63715;BME280;49858;48.956;9.076;2022-10-31T09:54:32;99082.69;;;18.81;100.00
63715;BME280;49858;48.956;9.076;2022-10-31T09:57:01;99085.38;;;19.09;100.00
63715;BME280;49858;48.956;9.076;2022-10-31T09:59:33;99086.78;;;19.53;100.00
63715;BME280;49858;48.956;9.076;2022-10-31T10:02:04;99101.88;;;19.59;100.00
63715;BME280;49858;48.956;9.076;2022-10-31T10:04:38;99093.50;;;19.59;100.00
63715;BME280;49858;48.956;9.076;2022-10-31T10:07:21;99089.25;;;20.03;100.00
63715;BME280;49858;48.956;9.076;2022-10-31T10:10:15;99095.31;;;20.47;100.00
63715;BME280;49858;48.956;9.076;2022-10-31T10:16:27;99087.47;;;20.27;100.00
63715;BME280;49858;48.956;9.076;2022-10-31T10:19:09;99084.88;;;20.92;100.00
63715;BME280;49858;48.956;9.076;2022-10-31T10:21:46;99082.41;;;20.98;100.00
63715;BME280;49858;48.956;9.076;2022-10-31T10:24:30;99077.13;;;21.68;100.00
63715;BME280;49858;48.956;9.076;2022-10-31T10:27:06;99067.88;;;21.44;100.00
63715;BME280;49858;48.956;9.076;2022-10-31T10:29:42;99068.41;;;21.62;100.00
63715;BME280;49858;48.956;9.076;2022-10-31T10:32:18;99063.13;;;21.95;100.00
63715;BME280;49858;48.956;9.076;2022-10-31T10:34:51;99064.31;;;21.40;100.00
63715;BME280;49858;48.956;9.076;2022-10-31T10:37:28;99057.41;;;21.17;100.00
63715;BME280;49858;48.956;9.076;2022-10-31T10:40:07;99056.66;;;21.13;100.00
63715;BME280;49858;48.956;9.076;2022-10-31T10:42:38;99054.31;;;21.08;100.00
63715;BME280;49858;48.956;9.076;2022-10-31T10:45:23;99054.59;;;21.17;100.00
63715;BME280;49858;48.956;9.076;2022-10-31T10:48:14;99058.34;;;20.28;100.00
63715;BME280;49858;48.956;9.076;2022-10-31T10:50:46;99047.47;;;19.92;100.00
63715;BME280;49858;48.956;9.076;2022-10-31T10:53:35;99047.09;;;19.90;100.00
63715;BME280;49858;48.956;9.076;2022-10-31T10:56:17;99045.81;;;20.47;100.00
63715;BME280;49858;48.956;9.076;2022-10-31T10:58:48;99036.47;;;20.20;100.00
63715;BME280;49858;48.956;9.076;2022-10-31T11:01:16;99039.78;;;20.04;100.00
63715;BME280;49858;48.956;9.076;2022-10-31T11:03:43;99037.00;;;20.04;100.00
63715;BME280;49858;48.956;9.076;2022-10-31T11:06:19;99031.91;;;20.36;100.00
63715;BME280;49858;48.956;9.076;2022-10-31T11:08:52;99028.34;;;19.91;100.00
63715;BME280;49858;48.956;9.076;2022-10-31T11:11:25;99024.97;;;20.10;100.00
63715;BME280;49858;48.956;9.076;2022-10-31T11:13:58;99017.84;;;20.06;100.00
63715;BME280;49858;48.956;9.076;2022-10-31T11:16:29;99016.31;;;20.39;100.00
63715;BME280;49858;48.956;9.076;2022-10-31T11:19:09;99013.84;;;20.03;100.00
63715;BME280;49858;48.956;9.076;2022-10-31T11:21:42;99005.94;;;19.98;100.00
63715;BME280;49858;48.956;9.076;2022-10-31T11:24:22;98994.63;;;20.12;100.00
63715;BME280;49858;48.956;9.076;2022-10-31T11:26:51;98988.59;;;19.73;100.00
63715;BME280;49858;48.956;9.076;2022-10-31T11:29:30;98992.66;;;19.61;100.00
63715;BME280;49858;48.956;9.076;2022-10-31T11:31:59;98979.97;;;19.49;100.00
63715;BME280;49858;48.956;9.076;2022-10-31T11:34:31;98979.56;;;19.51;100.00
63715;BME280;49858;48.956;9.076;2022-10-31T11:37:08;98978.41;;;19.48;100.00
63715;BME280;49858;48.956;9.076;2022-10-31T11:39:43;98979.91;;;19.56;100.00
63715;BME280;49858;48.956;9.076;2022-10-31T11:42:12;98968.91;;;19.38;100.00
63715;BME280;49858;48.956;9.076;2022-10-31T11:44:42;98971.25;;;18.74;100.00
63715;BME280;49858;48.956;9.076;2022-10-31T11:47:13;98974.31;;;18.97;100.00
63715;BME280;49858;48.956;9.076;2022-10-31T11:49:43;98966.03;;;19.46;100.00
63715;BME280;49858;48.956;9.076;2022-10-31T11:52:18;98963.38;;;19.28;100.00
63715;BME280;49858;48.956;9.076;2022-10-31T11:54:50;98963.50;;;19.69;100.00
63715;BME280;49858;48.956;9.076;2022-10-31T11:57:22;98963.56;;;20.07;100.00
63715;BME280;49858;48.956;9.076;2022-10-31T11:59:51;98962.75;;;20.10;100.00
63715;BME280;49858;48.956;9.076;2022-10-31T12:02:20;98967.16;;;20.49;100.00
63715;BME280;49858;48.956;9.076;2022-10-31T12:04:54;98952.22;;;20.25;100.00
63715;BME280;49858;48.956;9.076;2022-10-31T12:07:24;98953.16;;;20.11;100.00
63715;BME280;49858;48.956;9.076;2022-10-31T12:09:53;98949.78;;;20.27;100.00
63715;BME280;49858;48.956;9.076;2022-10-31T12:12:39;98957.72;;;20.32;100.00
63715;BME280;49858;48.956;9.076;2022-10-31T12:15:21;98949.88;;;20.57;100.00
63715;BME280;49858;48.956;9.076;2022-10-31T12:17:56;98950.63;;;20.61;100.00
63715;BME280;49858;48.956;9.076;2022-10-31T12:20:34;98937.97;;;20.12;100.00
63715;BME280;49858;48.956;9.076;2022-10-31T12:23:13;98940.91;;;21.04;100.00
63715;BME280;49858;48.956;9.076;2022-10-31T12:25:51;98927.44;;;20.95;100.00
63715;BME280;49858;48.956;9.076;2022-10-31T12:28:51;98914.81;;;21.10;100.00
63715;BME280;49858;48.956;9.076;2022-10-31T12:31:34;98917.19;;;20.85;100.00
63715;BME280;49858;48.956;9.076;2022-10-31T12:34:28;98903.63;;;21.10;100.00
63715;BME280;49858;48.956;9.076;2022-10-31T12:37:06;98900.56;;;21.32;100.00
63715;BME280;49858;48.956;9.076;2022-10-31T12:39:41;98897.56;;;21.42;100.00
63715;BME280;49858;48.956;9.076;2022-10-31T12:42:21;98894.03;;;21.38;100.00
63715;BME280;49858;48.956;9.076;2022-10-31T12:45:01;98890.75;;;21.43;100.00
63715;BME280;49858;48.956;9.076;2022-10-31T12:47:50;98894.25;;;21.75;100.00
63715;BME280;49858;48.956;9.076;2022-10-31T12:50:28;98893.84;;;20.99;100.00
63715;BME280;49858;48.956;9.076;2022-10-31T12:53:07;98899.41;;;20.37;100.00
63715;BME280;49858;48.956;9.076;2022-10-31T12:55:52;98886.44;;;20.85;100.00
63715;BME280;49858;48.956;9.076;2022-10-31T12:58:27;98880.63;;;20.72;100.00
63715;BME280;49858;48.956;9.076;2022-10-31T13:01:06;98880.03;;;20.57;100.00
63715;BME280;49858;48.956;9.076;2022-10-31T13:03:42;98874.28;;;20.68;100.00
63715;BME280;49858;48.956;9.076;2022-10-31T13:06:15;98867.69;;;20.51;100.00
63715;BME280;49858;48.956;9.076;2022-10-31T13:08:47;98857.63;;;20.88;100.00
63715;BME280;49858;48.956;9.076;2022-10-31T13:11:21;98847.31;;;19.86;100.00
63715;BME280;49858;48.956;9.076;2022-10-31T13:13:56;98845.34;;;19.38;100.00
63715;BME280;49858;48.956;9.076;2022-10-31T13:16:28;98842.03;;;19.95;100.00
63715;BME280;49858;48.956;9.076;2022-10-31T13:18:59;98836.00;;;20.00;100.00
63715;BME280;49858;48.956;9.076;2022-10-31T13:21:33;98831.72;;;19.47;100.00
63715;BME280;49858;48.956;9.076;2022-10-31T13:24:08;98827.19;;;20.02;100.00
63715;BME280;49858;48.956;9.076;2022-10-31T13:26:42;98830.81;;;19.61;100.00
63715;BME280;49858;48.956;9.076;2022-10-31T13:29:20;98827.75;;;19.48;100.00
63715;BME280;49858;48.956;9.076;2022-10-31T13:31:55;98819.25;;;20.31;100.00